createdAt,value
2018-05-02T00:00:41.870Z,6.15
2018-05-02T00:01:41.911Z,6.24
2018-05-02T00:02:40.642Z,6.15
2018-05-02T00:03:40.690Z,6.14
2018-05-02T00:04:40.989Z,6.1
2018-05-02T00:05:40.748Z,6.14
2018-05-02T00:06:40.820Z,6.14
2018-05-02T00:07:40.747Z,6.07
2018-05-02T00:08:40.997Z,6.03
2018-05-02T00:09:41.267Z,5.96
2018-05-02T00:10:41.266Z,5.98
2018-05-02T00:11:41.330Z,5.89
2018-05-02T00:12:41.762Z,5.84
2018-05-02T00:13:41.747Z,5.75
2018-05-02T00:14:41.825Z,5.77
2018-05-02T00:15:41.961Z,5.81
2018-05-02T00:16:42.518Z,5.82
2018-05-02T00:17:42.951Z,5.84
2018-05-02T00:18:42.937Z,5.66
2018-05-02T00:19:42.999Z,5.73
2018-05-02T00:20:43.019Z,5.81
2018-05-02T00:21:42.750Z,5.67
2018-05-02T00:22:43.143Z,5.72
2018-05-02T00:23:43.191Z,5.8
2018-05-02T00:24:43.005Z,5.73
2018-05-02T00:25:43.716Z,5.7
2018-05-02T00:26:43.487Z,5.78
2018-05-02T00:27:43.811Z,5.64
2018-05-02T00:28:44.037Z,5.73
2018-05-02T00:29:43.797Z,5.69
2018-05-02T00:30:44.009Z,5.69
2018-05-02T00:31:44.055Z,5.78
2018-05-02T00:32:43.753Z,5.7
2018-05-02T00:33:44.034Z,5.73
2018-05-02T00:34:43.944Z,5.66
2018-05-02T00:35:44.381Z,5.63
2018-05-02T00:36:43.981Z,5.6
2018-05-02T00:37:44.122Z,5.62
2018-05-02T00:38:44.456Z,5.63
2018-05-02T00:39:43.932Z,5.6
2018-05-02T00:40:44.489Z,5.69
2018-05-02T00:41:44.840Z,5.6
2018-05-02T00:42:44.877Z,5.6
2018-05-02T00:43:44.731Z,5.62
2018-05-02T00:44:45.182Z,5.72
2018-05-02T00:45:45.191Z,5.73
2018-05-02T00:46:45.236Z,5.7
2018-05-02T00:47:45.260Z,5.77
2018-05-02T00:48:45.167Z,5.66
2018-05-02T00:49:45.487Z,5.63
2018-05-02T00:50:45.881Z,5.77
2018-05-02T00:51:46.356Z,5.72
2018-05-02T00:52:46.363Z,5.73
2018-05-02T00:53:45.848Z,5.73
2018-05-02T00:54:46.113Z,5.64
2018-05-02T00:55:46.519Z,5.64
2018-05-02T00:56:46.527Z,5.49
2018-05-02T00:57:46.560Z,5.42
2018-05-02T00:58:47.005Z,5.46
2018-05-02T00:59:47.025Z,5.51
2018-05-02T01:00:48.051Z,5.41
2018-05-02T01:01:50.102Z,5.46
2018-05-02T01:02:47.094Z,5.48
2018-05-02T01:03:46.858Z,5.48
2018-05-02T01:04:47.275Z,5.48
2018-05-02T01:05:47.697Z,5.42
2018-05-02T01:06:47.740Z,5.39
2018-05-02T01:07:48.265Z,5.23
2018-05-02T01:08:47.942Z,5.39
2018-05-02T01:09:48.638Z,5.27
2018-05-02T01:10:49.312Z,5.3
2018-05-02T01:11:48.932Z,5.39
2018-05-02T01:12:49.609Z,5.39
2018-05-02T01:13:49.624Z,5.37
2018-05-02T01:14:49.392Z,5.33
2018-05-02T01:15:49.754Z,5.24
2018-05-02T01:16:49.707Z,5.28
2018-05-02T01:17:49.734Z,5.15
2018-05-02T01:18:49.799Z,5.28
2018-05-02T01:19:49.505Z,5.31
2018-05-02T01:20:50.167Z,5.24
2018-05-02T01:21:50.216Z,5.28
2018-05-02T01:22:50.632Z,5.23
2018-05-02T01:23:51.331Z,5.16
2018-05-02T01:24:51.062Z,5.2
2018-05-02T01:25:51.086Z,5.09
2018-05-02T01:26:51.109Z,5.23
2018-05-02T01:27:51.242Z,5.2
2018-05-02T01:28:51.657Z,5.23
2018-05-02T01:29:51.756Z,5.21
2018-05-02T01:30:51.764Z,5.12
2018-05-02T01:31:52.210Z,5.1
2018-05-02T01:32:52.213Z,5.09
2018-05-02T01:33:52.530Z,5.06
2018-05-02T01:34:52.700Z,5.05
2018-05-02T01:35:52.663Z,4.97
2018-05-02T01:36:52.905Z,4.9
2018-05-02T01:37:53.451Z,5
2018-05-02T01:38:52.568Z,4.92
2018-05-02T01:39:52.420Z,4.91
2018-05-02T01:40:52.555Z,4.85
2018-05-02T01:41:52.639Z,4.92
2018-05-02T01:42:52.541Z,4.97
2018-05-02T01:43:52.613Z,4.87
2018-05-02T01:44:52.295Z,4.85
2018-05-02T01:45:52.788Z,4.74
2018-05-02T01:46:52.397Z,4.88
2018-05-02T01:47:53.256Z,4.91
2018-05-02T01:48:53.088Z,4.87
2018-05-02T01:49:53.291Z,4.91
2018-05-02T01:50:53.336Z,4.94
2018-05-02T01:51:53.759Z,4.88
2018-05-02T01:52:54.157Z,4.88
2018-05-02T01:53:54.017Z,4.87
2018-05-02T01:54:54.560Z,4.88
2018-05-02T01:55:54.724Z,4.88
2018-05-02T01:56:54.713Z,4.84
2018-05-02T01:57:54.841Z,4.88
2018-05-02T01:58:54.761Z,4.83
2018-05-02T01:59:54.989Z,4.83
2018-05-02T02:00:55.313Z,4.76
2018-05-02T02:01:56.843Z,4.84
2018-05-02T02:02:56.257Z,4.91
2018-05-02T02:03:56.499Z,4.91
2018-05-02T02:04:56.968Z,4.88
2018-05-02T02:05:56.879Z,4.85
2018-05-02T02:06:56.986Z,4.76
2018-05-02T02:07:57.367Z,4.75
2018-05-02T02:08:57.226Z,4.71
2018-05-02T02:09:57.588Z,4.83
2018-05-02T02:10:57.348Z,4.91
2018-05-02T02:11:57.782Z,4.87
2018-05-02T02:12:58.473Z,4.87
2018-05-02T02:13:58.605Z,4.76
2018-05-02T02:14:59.030Z,4.85
2018-05-02T02:15:58.555Z,4.84
2018-05-02T02:16:58.574Z,4.83
2018-05-02T02:17:58.740Z,4.85
2018-05-02T02:18:59.247Z,4.88
2018-05-02T02:19:58.813Z,4.87
2018-05-02T02:20:59.290Z,4.83
2018-05-02T02:21:59.181Z,4.72
2018-05-02T02:22:59.344Z,4.76
2018-05-02T02:23:59.558Z,4.72
2018-05-02T02:24:59.465Z,4.75
2018-05-02T02:25:59.958Z,4.64
2018-05-02T02:27:00.168Z,4.64
2018-05-02T02:28:00.082Z,4.69
2018-05-02T02:29:00.834Z,4.64
2018-05-02T02:30:00.178Z,4.68
2018-05-02T02:31:00.456Z,4.66
2018-05-02T02:32:00.519Z,4.64
2018-05-02T02:33:00.249Z,4.66
2018-05-02T02:34:00.986Z,4.65
2018-05-02T02:35:01.140Z,4.65
2018-05-02T02:36:01.346Z,4.6
2018-05-02T02:37:01.105Z,4.53
2018-05-02T02:38:01.191Z,4.47
2018-05-02T02:39:01.076Z,4.5
2018-05-02T02:40:01.537Z,4.57
2018-05-02T02:41:02.371Z,4.56
2018-05-02T02:42:01.586Z,4.54
2018-05-02T02:43:01.293Z,4.54
2018-05-02T02:44:01.495Z,4.47
2018-05-02T02:45:01.860Z,4.47
2018-05-02T02:46:02.033Z,4.36
2018-05-02T02:47:01.848Z,4.33
2018-05-02T02:48:01.852Z,4.36
2018-05-02T02:49:01.376Z,4.4
2018-05-02T02:50:01.882Z,4.29
2018-05-02T02:51:02.733Z,4.2
2018-05-02T02:52:02.488Z,4.21
2018-05-02T02:53:02.380Z,4.22
2018-05-02T02:54:02.173Z,4.21
2018-05-02T02:55:02.243Z,4.18
2018-05-02T02:56:02.619Z,4.22
2018-05-02T02:57:02.437Z,4.18
2018-05-02T02:58:02.384Z,4.29
2018-05-02T02:59:03.048Z,4.32
2018-05-02T04:00:18.887Z,4.3
2018-05-02T04:01:19.303Z,4.32
2018-05-02T04:02:19.703Z,4.33
2018-05-02T04:03:19.727Z,4.4
2018-05-02T04:04:19.506Z,4.39
2018-05-02T04:05:19.919Z,4.48
2018-05-02T04:06:19.662Z,4.42
2018-05-02T04:07:20.042Z,4.57
2018-05-02T04:08:20.703Z,4.53
2018-05-02T04:09:20.453Z,4.53
2018-05-02T04:10:21.158Z,4.64
2018-05-02T04:11:21.276Z,4.68
2018-05-02T04:12:21.707Z,4.71
2018-05-02T04:13:21.824Z,4.85
2018-05-02T04:14:22.244Z,4.9
2018-05-02T04:15:22.664Z,4.9
2018-05-02T04:16:22.792Z,4.87
2018-05-02T04:17:23.207Z,4.95
2018-05-02T04:18:22.689Z,5.08
2018-05-02T04:19:22.992Z,5.05
2018-05-02T04:20:23.393Z,5.05
2018-05-02T04:21:23.546Z,5.05
2018-05-02T04:22:23.913Z,5.15
2018-05-02T04:23:23.547Z,5.13
2018-05-02T04:24:24.145Z,5.23
2018-05-02T04:25:24.141Z,5.13
2018-05-02T04:26:25.091Z,5.18
2018-05-02T04:27:24.930Z,5.23
2018-05-02T04:28:24.718Z,5.28
2018-05-02T04:29:25.105Z,5.37
2018-05-02T04:30:25.467Z,5.46
2018-05-02T04:31:25.434Z,5.49
2018-05-02T04:32:25.436Z,5.51
2018-05-02T04:33:25.208Z,5.46
2018-05-02T04:34:27.028Z,5.51
2018-05-02T04:35:25.791Z,5.46
2018-05-02T04:36:26.052Z,5.52
2018-05-02T04:37:26.097Z,5.45
2018-05-02T04:38:25.838Z,5.57
2018-05-02T04:39:26.128Z,5.57
2018-05-02T04:40:26.258Z,5.54
2018-05-02T04:41:26.293Z,5.57
2018-05-02T04:42:26.463Z,5.59
2018-05-02T04:43:26.882Z,5.57
2018-05-02T04:44:27.012Z,5.59
2018-05-02T04:45:27.278Z,5.67
2018-05-02T04:46:27.178Z,5.64
2018-05-02T04:47:27.307Z,5.6
2018-05-02T04:48:27.598Z,5.66
2018-05-02T04:49:27.920Z,5.63
2018-05-02T04:50:28.155Z,5.72
2018-05-02T04:51:28.249Z,5.67
2018-05-02T04:52:28.529Z,5.75
2018-05-02T04:53:28.158Z,5.91
2018-05-02T04:54:28.654Z,6.09
2018-05-02T04:55:28.799Z,6.17
2018-05-02T04:56:28.726Z,6.4
2018-05-02T04:57:29.214Z,6.55
2018-05-02T04:58:29.630Z,6.76
2018-05-02T04:59:30.143Z,6.85
2018-05-02T05:00:29.936Z,7.05
2018-05-02T05:01:29.833Z,7.13
2018-05-02T05:02:30.164Z,7.19
2018-05-02T05:03:30.297Z,7.23
2018-05-02T05:04:30.234Z,7.33
2018-05-02T05:05:30.279Z,7.3
2018-05-02T05:06:30.345Z,7.39
2018-05-02T05:07:30.066Z,7.33
2018-05-02T05:08:30.615Z,7.36
2018-05-02T05:09:30.355Z,7.41
2018-05-02T05:10:30.271Z,7.56
2018-05-02T05:11:30.613Z,7.64
2018-05-02T05:12:31.121Z,7.85
2018-05-02T05:13:30.902Z,7.98
2018-05-02T05:14:31.053Z,8.21
2018-05-02T05:15:31.958Z,8.35
2018-05-02T05:16:32.458Z,8.67
2018-05-02T05:17:32.531Z,8.85
2018-05-02T05:18:32.505Z,8.98
2018-05-02T05:19:32.459Z,9.09
2018-05-02T05:20:32.445Z,9.2
2018-05-02T05:21:32.715Z,9.37
2018-05-02T05:22:33.029Z,9.48
2018-05-02T05:23:33.443Z,9.6
2018-05-02T05:24:32.791Z,9.78
2018-05-02T05:25:33.252Z,10.07
2018-05-02T05:26:33.429Z,10.28
2018-05-02T05:27:33.990Z,10.44
2018-05-02T05:28:34.046Z,10.61
2018-05-02T05:29:34.021Z,10.77
2018-05-02T05:30:34.195Z,10.9
2018-05-02T05:31:34.235Z,10.88
2018-05-02T05:32:34.500Z,10.97
2018-05-02T05:33:34.968Z,10.84
2018-05-02T05:34:34.746Z,10.84
2018-05-02T05:35:34.776Z,10.8
2018-05-02T05:36:35.044Z,10.75
2018-05-02T05:37:35.220Z,10.61
2018-05-02T05:38:35.218Z,10.54
2018-05-02T05:39:36.044Z,10.52
2018-05-02T05:40:35.096Z,10.61
2018-05-02T05:41:35.699Z,10.63
2018-05-02T05:42:36.175Z,10.63
2018-05-02T05:43:36.395Z,10.72
2018-05-02T05:44:36.556Z,10.79
2018-05-02T05:45:36.262Z,10.91
2018-05-02T05:46:36.763Z,10.98
2018-05-02T05:47:36.560Z,10.95
2018-05-02T05:48:36.830Z,11.15
2018-05-02T05:49:36.869Z,11.15
2018-05-02T05:50:37.328Z,11.43
2018-05-02T05:51:37.529Z,11.61
2018-05-02T05:52:37.541Z,11.7
2018-05-02T05:53:37.581Z,11.84
2018-05-02T05:54:38.090Z,11.82
2018-05-02T05:55:37.982Z,11.98
2018-05-02T05:56:38.246Z,11.95
2018-05-02T05:57:38.276Z,12.05
2018-05-02T05:58:38.756Z,12.13
2018-05-02T05:59:38.497Z,12.31
2018-05-02T06:00:40.985Z,12.37
2018-05-02T06:01:39.857Z,12.45
2018-05-02T06:02:38.349Z,12.44
2018-05-02T06:03:39.024Z,12.52
2018-05-02T06:04:39.154Z,12.66
2018-05-02T06:05:39.334Z,12.69
2018-05-02T06:06:39.513Z,12.86
2018-05-02T06:07:40.036Z,13.06
2018-05-02T06:08:40.179Z,13.17
2018-05-02T06:09:40.206Z,13.29
2018-05-02T06:10:40.394Z,13.42
2018-05-02T06:11:40.036Z,13.4
2018-05-02T06:12:40.364Z,13.75
2018-05-02T06:13:39.797Z,13.95
2018-05-02T06:14:40.690Z,14.16
2018-05-02T06:15:40.513Z,14.41
2018-05-02T06:16:40.914Z,14.71
2018-05-02T06:17:41.024Z,14.98
2018-05-02T06:18:41.475Z,15.16
2018-05-02T06:19:41.726Z,15.16
2018-05-02T06:20:41.861Z,15.31
2018-05-02T06:21:41.779Z,15.4
2018-05-02T06:22:42.833Z,15.58
2018-05-02T06:23:42.526Z,15.68
2018-05-02T06:24:42.874Z,15.75
2018-05-02T06:25:43.279Z,16.02
2018-05-02T06:26:43.019Z,16.14
2018-05-02T06:27:43.361Z,16.17
2018-05-02T06:28:43.359Z,16.1
2018-05-02T06:29:43.372Z,15.98
2018-05-02T06:30:43.887Z,16.16
2018-05-02T06:31:44.043Z,16.13
2018-05-02T06:32:44.274Z,16.16
2018-05-02T06:33:44.630Z,15.86
2018-05-02T06:34:44.403Z,15.62
2018-05-02T06:35:45.345Z,15.49
2018-05-02T06:36:45.195Z,15.41
2018-05-02T06:37:46.063Z,15.45
2018-05-02T06:38:45.747Z,15.4
2018-05-02T06:39:46.226Z,15.12
2018-05-02T06:40:46.556Z,14.79
2018-05-02T06:41:46.515Z,14.49
2018-05-02T06:42:46.973Z,14.52
2018-05-02T06:43:46.706Z,14.15
2018-05-02T06:44:46.747Z,14.03
2018-05-02T06:45:46.767Z,14.05
2018-05-02T06:46:46.815Z,14.02
2018-05-02T06:47:46.265Z,13.88
2018-05-02T06:48:46.615Z,14.05
2018-05-02T06:49:47.277Z,14.19
2018-05-02T06:50:47.033Z,14.36
2018-05-02T06:51:47.447Z,14.34
2018-05-02T06:52:47.916Z,14.31
2018-05-02T06:53:48.371Z,14.23
2018-05-02T06:54:48.368Z,14.24
2018-05-02T06:55:48.114Z,14.41
2018-05-02T06:56:48.876Z,14.44
2018-05-02T06:57:49.227Z,14.63
2018-05-02T06:58:48.894Z,14.66
2018-05-02T06:59:48.923Z,14.59
2018-05-02T07:00:50.646Z,14.64
2018-05-02T07:01:50.884Z,14.61
2018-05-02T07:02:48.753Z,14.66
2018-05-02T07:03:49.156Z,14.74
2018-05-02T07:04:49.585Z,14.82
2018-05-02T07:05:49.361Z,14.94
2018-05-02T07:06:49.424Z,15.13
2018-05-02T07:07:49.413Z,15.33
2018-05-02T07:08:49.729Z,15.51
2018-05-02T07:09:49.818Z,15.98
2018-05-02T07:10:50.741Z,16.33
2018-05-02T07:11:50.420Z,16.42
2018-05-02T07:12:50.483Z,16.69
2018-05-02T07:13:50.465Z,16.72
2018-05-02T07:14:50.868Z,16.95
2018-05-02T07:15:50.126Z,17.1
2018-05-02T07:16:50.716Z,17.17
2018-05-02T07:17:50.876Z,16.99
2018-05-02T07:18:50.947Z,17.13
2018-05-02T07:19:50.954Z,17.17
2018-05-02T07:20:51.599Z,17.31
2018-05-02T07:21:51.425Z,17.81
2018-05-02T07:22:51.641Z,17.9
2018-05-02T07:23:51.885Z,18.41
2018-05-02T07:24:52.302Z,18.69
2018-05-02T07:25:51.524Z,18.86
2018-05-02T07:26:51.807Z,18.91
2018-05-02T07:27:52.327Z,19.2
2018-05-02T07:28:52.361Z,18.89
2018-05-02T07:29:52.820Z,18.71
2018-05-02T07:30:53.405Z,18.79
2018-05-02T07:31:54.289Z,18.47
2018-05-02T07:32:54.941Z,18.29
2018-05-02T07:33:54.268Z,18.34
2018-05-02T07:34:54.451Z,17.86
2018-05-02T07:35:54.448Z,17.6
2018-05-02T07:36:54.367Z,17.52
2018-05-02T07:37:54.071Z,17.66
2018-05-02T07:38:54.740Z,17.86
2018-05-02T07:39:55.010Z,18.11
2018-05-02T07:40:54.894Z,18.41
2018-05-02T07:41:54.957Z,18.68
2018-05-02T07:42:54.878Z,18.84
2018-05-02T07:43:54.994Z,18.99
2018-05-02T07:44:55.558Z,19
2018-05-02T07:45:55.286Z,18.93
2018-05-02T07:46:55.534Z,18.81
2018-05-02T07:47:56.080Z,18.57
2018-05-02T07:48:55.762Z,18.39
2018-05-02T07:49:56.034Z,18.35
2018-05-02T07:50:56.869Z,18.56
2018-05-02T07:51:56.193Z,18.61
2018-05-02T07:52:56.376Z,19.2
2018-05-02T07:53:56.186Z,19.31
2018-05-02T07:54:55.959Z,19.42
2018-05-02T07:55:56.866Z,19.64
2018-05-02T07:56:56.710Z,19.67
2018-05-02T07:57:57.541Z,19.61
2018-05-02T07:58:57.448Z,19.24
2018-05-02T07:59:57.651Z,19.12
2018-05-02T08:00:57.421Z,19.09
2018-05-02T08:01:57.533Z,18.99
2018-05-02T08:02:58.752Z,19.12
2018-05-02T08:03:58.487Z,19.3
2018-05-02T08:04:58.718Z,19.53
2018-05-02T08:05:59.681Z,19.16
2018-05-02T08:06:58.993Z,18.86
2018-05-02T08:07:59.451Z,18.53
2018-05-02T08:08:59.661Z,18.44
2018-05-02T08:10:00.076Z,18.35
2018-05-02T08:10:59.900Z,18.51
2018-05-02T08:11:59.747Z,18.56
2018-05-02T08:12:59.823Z,18.53
2018-05-02T08:14:00.483Z,18.39
2018-05-02T08:15:00.720Z,18.38
2018-05-02T08:16:00.862Z,18.57
2018-05-02T08:17:00.585Z,18.56
2018-05-02T08:18:00.733Z,18.66
2018-05-02T08:19:00.668Z,18.6
2018-05-02T08:20:00.767Z,18.96
2018-05-02T08:21:00.686Z,19.07
2018-05-02T08:22:01.835Z,18.99
2018-05-02T08:23:01.102Z,19.31
2018-05-02T08:24:01.462Z,19.5
2018-05-02T08:25:01.839Z,19.82
2018-05-02T08:26:01.763Z,20.11
2018-05-02T08:27:01.912Z,20.66
2018-05-02T08:28:02.287Z,21.18
2018-05-02T08:29:02.873Z,21.76
2018-05-02T08:30:03.568Z,21.85
2018-05-02T08:31:02.976Z,22.3
2018-05-02T08:32:03.151Z,22.78
2018-05-02T08:33:04.340Z,23.41
2018-05-02T08:34:04.256Z,23.64
2018-05-02T08:35:04.215Z,23.52
2018-05-02T08:36:04.210Z,23.26
2018-05-02T08:37:04.094Z,23.04
2018-05-02T08:38:04.279Z,23.12
2018-05-02T08:39:05.118Z,22.99
2018-05-02T08:40:05.189Z,22.67
2018-05-02T08:41:05.091Z,22.45
2018-05-02T08:42:05.611Z,22.05
2018-05-02T08:43:05.143Z,21.68
2018-05-02T08:44:05.725Z,21.36
2018-05-02T08:45:05.775Z,21.04
2018-05-02T08:46:06.067Z,20.48
2018-05-02T08:47:05.880Z,19.95
2018-05-02T08:48:06.601Z,19.4
2018-05-02T08:49:06.344Z,19.3
2018-05-02T08:50:06.456Z,19
2018-05-02T08:51:07.582Z,18.57
2018-05-02T08:52:07.135Z,18.39
2018-05-02T08:53:07.219Z,18.27
2018-05-02T08:54:07.436Z,18.27
2018-05-02T08:55:07.440Z,18.42
2018-05-02T08:56:07.177Z,18.39
2018-05-02T08:57:07.818Z,18.29
2018-05-02T08:58:07.603Z,18.05
2018-05-02T08:59:08.256Z,17.94
2018-05-02T09:00:13.155Z,17.86
2018-05-02T09:01:07.853Z,17.87
2018-05-02T09:02:08.166Z,17.5
2018-05-02T09:03:08.370Z,17.39
2018-05-02T09:04:08.151Z,16.97
2018-05-02T09:05:08.098Z,17
2018-05-02T09:06:08.511Z,16.81
2018-05-02T09:07:09.389Z,16.81
2018-05-02T09:08:08.656Z,16.69
2018-05-02T09:09:09.187Z,16.73
2018-05-02T09:10:09.097Z,16.76
2018-05-02T09:11:09.442Z,16.82
2018-05-02T09:12:09.699Z,16.88
2018-05-02T09:13:09.202Z,16.87
2018-05-02T09:14:09.505Z,16.66
2018-05-02T09:15:10.096Z,16.37
2018-05-02T09:16:09.863Z,16.22
2018-05-02T09:17:10.017Z,16.16
2018-05-02T09:18:10.677Z,16.14
2018-05-02T09:19:10.711Z,15.96
2018-05-02T09:20:10.493Z,15.93
2018-05-02T09:21:10.623Z,15.95
2018-05-02T09:22:10.753Z,15.91
2018-05-02T09:23:11.297Z,15.86
2018-05-02T09:24:11.132Z,15.74
2018-05-02T09:25:11.816Z,15.59
2018-05-02T09:26:12.023Z,15.41
2018-05-02T09:27:11.691Z,15.3
2018-05-02T09:28:12.125Z,15.26
2018-05-02T09:29:11.733Z,15.4
2018-05-02T09:30:11.861Z,15.31
2018-05-02T09:31:11.838Z,15.34
2018-05-02T09:32:12.024Z,15.26
2018-05-02T09:33:12.864Z,15.2
2018-05-02T09:34:12.508Z,15.12
2018-05-02T09:35:12.926Z,15.01
2018-05-02T09:36:13.102Z,14.85
2018-05-02T09:37:12.845Z,14.69
2018-05-02T09:38:13.126Z,14.82
2018-05-02T09:39:13.290Z,14.66
2018-05-02T09:40:13.540Z,14.74
2018-05-02T09:41:13.423Z,14.71
2018-05-02T09:42:14.096Z,14.64
2018-05-02T09:43:14.118Z,14.63
2018-05-02T09:44:14.064Z,14.61
2018-05-02T09:45:13.903Z,14.6
2018-05-02T09:46:14.029Z,14.57
2018-05-02T09:47:14.076Z,14.63
2018-05-02T09:48:14.213Z,14.59
2018-05-02T09:49:14.673Z,14.61
2018-05-02T09:50:14.817Z,14.64
2018-05-02T09:51:15.229Z,14.59
2018-05-02T09:52:15.299Z,14.64
2018-05-02T09:53:15.288Z,14.63
2018-05-02T09:54:15.279Z,14.63
2018-05-02T09:55:15.307Z,14.69
2018-05-02T09:56:15.623Z,14.7
2018-05-02T09:57:15.436Z,14.83
2018-05-02T09:58:15.935Z,14.93
2018-05-02T09:59:15.749Z,14.93
2018-05-02T10:00:15.771Z,14.98
2018-05-02T10:01:15.612Z,14.93
2018-05-02T10:02:15.907Z,14.93
2018-05-02T10:03:16.116Z,15
2018-05-02T10:04:16.571Z,14.98
2018-05-02T10:05:16.883Z,14.86
2018-05-02T10:06:17.018Z,14.94
2018-05-02T10:07:17.706Z,15.07
2018-05-02T10:08:17.708Z,15.05
2018-05-02T10:09:17.464Z,14.97
2018-05-02T10:10:17.809Z,14.98
2018-05-02T10:11:17.808Z,15.04
2018-05-02T10:12:18.167Z,15.08
2018-05-02T10:13:17.850Z,15.18
2018-05-02T10:14:17.872Z,15.33
2018-05-02T10:15:17.940Z,15.38
2018-05-02T10:16:17.669Z,15.58
2018-05-02T10:17:17.867Z,15.41
2018-05-02T10:18:18.178Z,15.4
2018-05-02T10:19:18.648Z,15.47
2018-05-02T10:20:18.683Z,15.56
2018-05-02T10:21:19.154Z,15.6
2018-05-02T10:22:19.149Z,15.63
2018-05-02T10:23:18.927Z,15.59
2018-05-02T10:24:18.983Z,15.56
2018-05-02T10:25:18.967Z,15.59
2018-05-02T10:26:19.764Z,15.56
2018-05-02T10:27:19.477Z,15.65
2018-05-02T10:28:19.561Z,15.52
2018-05-02T10:29:19.587Z,15.38
2018-05-02T10:30:19.632Z,15.43
2018-05-02T10:31:19.923Z,15.45
2018-05-02T10:32:19.884Z,15.45
2018-05-02T10:33:20.462Z,15.51
2018-05-02T10:34:20.588Z,15.6
2018-05-02T10:35:20.778Z,15.56
2018-05-02T10:36:21.524Z,15.73
2018-05-02T10:37:20.863Z,15.89
2018-05-02T10:38:20.726Z,15.84
2018-05-02T10:39:20.911Z,15.86
2018-05-02T10:40:20.994Z,15.96
2018-05-02T10:41:21.177Z,15.96
2018-05-02T10:42:21.240Z,16.02
2018-05-02T10:43:20.758Z,16.13
2018-05-02T10:44:21.279Z,16.08
2018-05-02T10:45:21.501Z,16.1
2018-05-02T10:46:21.529Z,16.17
2018-05-02T10:47:21.731Z,16.26
2018-05-02T10:48:22.026Z,16.26
2018-05-02T10:49:21.956Z,16.25
2018-05-02T10:50:22.360Z,16.22
2018-05-02T10:51:22.589Z,16.39
2018-05-02T10:52:22.936Z,16.44
2018-05-02T10:53:22.643Z,16.58
2018-05-02T10:54:22.770Z,16.65
2018-05-02T10:55:22.688Z,16.9
2018-05-02T10:56:22.459Z,16.87
2018-05-02T10:57:22.764Z,16.9
2018-05-02T10:58:23.080Z,16.95
2018-05-02T10:59:23.220Z,17.06
2018-05-02T11:00:23.216Z,17.12
2018-05-02T11:01:23.182Z,17.1
2018-05-02T11:02:23.011Z,17.15
2018-05-02T11:03:23.049Z,17.15
2018-05-02T11:04:23.478Z,16.95
2018-05-02T11:05:23.070Z,16.85
2018-05-02T11:06:23.643Z,16.77
2018-05-02T11:07:23.685Z,16.81
2018-05-02T11:08:23.692Z,17.06
2018-05-02T11:09:23.577Z,17.21
2018-05-02T11:10:24.164Z,17.17
2018-05-02T11:11:24.730Z,16.99
2018-05-02T11:12:23.974Z,16.95
2018-05-02T11:13:24.155Z,16.9
2018-05-02T11:14:24.542Z,16.69
2018-05-02T11:15:24.532Z,16.85
2018-05-02T11:16:24.458Z,16.72
2018-05-02T11:17:25.081Z,16.51
2018-05-02T11:18:25.299Z,16.36
2018-05-02T11:19:25.713Z,16.33
2018-05-02T11:20:25.079Z,16.27
2018-05-02T11:21:25.593Z,16.32
2018-05-02T11:22:25.793Z,16.39
2018-05-02T11:23:25.616Z,16.21
2018-05-02T11:24:25.826Z,16.16
2018-05-02T11:25:25.593Z,16.18
2018-05-02T11:26:25.849Z,16.17
2018-05-02T11:27:25.676Z,16.07
2018-05-02T11:28:26.087Z,15.95
2018-05-02T11:29:25.710Z,15.89
2018-05-02T11:30:26.662Z,15.99
2018-05-02T11:31:26.422Z,15.89
2018-05-02T11:32:26.736Z,15.89
2018-05-02T11:33:27.380Z,15.88
2018-05-02T11:34:26.958Z,15.81
2018-05-02T11:35:27.220Z,15.68
2018-05-02T11:36:27.223Z,15.56
2018-05-02T11:37:27.507Z,15.6
2018-05-02T11:38:27.884Z,15.59
2018-05-02T11:39:27.902Z,15.58
2018-05-02T11:40:27.598Z,15.52
2018-05-02T11:41:27.901Z,15.45
2018-05-02T11:42:28.424Z,15.44
2018-05-02T11:43:28.385Z,15.34
2018-05-02T11:44:28.403Z,15.44
2018-05-02T11:45:28.725Z,15.41
2018-05-02T11:46:28.763Z,15.49
2018-05-02T11:47:29.446Z,15.44
2018-05-02T11:48:28.544Z,15.38
2018-05-02T11:49:28.359Z,15.45
2018-05-02T11:50:28.959Z,15.35
2018-05-02T11:51:28.873Z,15.31
2018-05-02T11:52:28.835Z,15.2
2018-05-02T11:53:29.192Z,15.13
2018-05-02T11:54:28.854Z,15.1
2018-05-02T11:55:29.179Z,15.01
2018-05-02T11:56:29.206Z,15.01
2018-05-02T11:57:29.522Z,14.95
2018-05-02T11:58:29.273Z,14.79
2018-05-02T11:59:29.305Z,14.87
2018-05-02T12:00:31.858Z,14.77
2018-05-02T12:01:31.409Z,14.94
2018-05-02T12:02:29.883Z,14.85
2018-05-02T12:03:30.643Z,14.7
2018-05-02T12:04:30.574Z,14.69
2018-05-02T12:05:31.276Z,14.71
2018-05-02T12:06:31.458Z,14.71
2018-05-02T12:07:31.213Z,14.7
2018-05-02T12:08:31.902Z,14.69
2018-05-02T12:09:31.663Z,14.71
2018-05-02T12:10:31.951Z,14.64
2018-05-02T12:11:31.998Z,14.66
2018-05-02T12:12:32.834Z,14.66
2018-05-02T12:13:33.116Z,14.66
2018-05-02T12:14:33.126Z,14.64
2018-05-02T12:15:33.760Z,14.64
2018-05-02T12:16:33.082Z,14.6
2018-05-02T12:17:33.361Z,14.6
2018-05-02T12:18:33.898Z,14.53
2018-05-02T12:19:34.363Z,14.46
2018-05-02T12:20:35.026Z,14.42
2018-05-02T12:21:34.772Z,14.41
2018-05-02T12:22:34.786Z,14.48
2018-05-02T12:23:34.511Z,14.46
2018-05-02T12:24:35.103Z,14.52
2018-05-02T12:25:34.752Z,14.48
2018-05-02T12:26:35.375Z,14.45
2018-05-02T12:27:35.070Z,14.36
2018-05-02T12:28:35.451Z,14.31
2018-05-02T12:29:35.835Z,14.34
2018-05-02T12:30:35.866Z,14.48
2018-05-02T12:31:35.634Z,14.31
2018-05-02T12:32:36.130Z,14.48
2018-05-02T12:33:36.129Z,14.51
2018-05-02T12:34:35.857Z,14.46
2018-05-02T12:35:36.585Z,14.51
2018-05-02T12:36:36.489Z,14.52
2018-05-02T12:37:36.223Z,14.49
2018-05-02T12:38:36.085Z,14.49
2018-05-02T12:39:36.440Z,14.61
2018-05-02T12:40:37.147Z,14.61
2018-05-02T12:41:37.152Z,14.57
2018-05-02T12:42:37.558Z,14.66
2018-05-02T12:43:37.982Z,14.63
2018-05-02T12:44:38.015Z,14.71
2018-05-02T12:45:38.081Z,14.61
2018-05-02T12:46:38.343Z,14.61
2018-05-02T12:47:38.289Z,14.63
2018-05-02T12:48:38.695Z,14.63
2018-05-02T12:49:38.726Z,14.71
2018-05-02T12:50:38.479Z,14.74
2018-05-02T12:51:38.567Z,14.64
2018-05-02T12:52:39.101Z,14.61
2018-05-02T12:53:39.053Z,14.66
2018-05-02T12:54:39.548Z,14.59
2018-05-02T12:55:39.723Z,14.6
2018-05-02T12:56:39.870Z,14.66
2018-05-02T12:57:39.716Z,14.71
2018-05-02T12:58:40.217Z,14.79
2018-05-02T12:59:39.779Z,14.8
2018-05-02T13:00:41.533Z,14.93
2018-05-02T13:01:42.555Z,14.94
2018-05-02T13:02:40.296Z,15
2018-05-02T13:03:40.432Z,14.94
2018-05-02T13:04:41.038Z,15
2018-05-02T13:05:40.391Z,15.1
2018-05-02T13:06:41.177Z,15.23
2018-05-02T13:07:41.352Z,15.45
2018-05-02T13:08:41.552Z,15.44
2018-05-02T13:09:41.873Z,15.38
2018-05-02T13:10:41.620Z,15.35
2018-05-02T13:11:42.022Z,15.4
2018-05-02T13:12:41.885Z,15.51
2018-05-02T13:13:42.029Z,15.43
2018-05-02T13:14:41.811Z,15.52
2018-05-02T13:15:42.256Z,15.59
2018-05-02T13:16:42.254Z,15.58
2018-05-02T13:17:42.965Z,15.55
2018-05-02T13:18:43.370Z,15.58
2018-05-02T13:19:43.462Z,15.63
2018-05-02T13:20:43.243Z,15.8
2018-05-02T13:21:43.452Z,16
2018-05-02T13:22:43.272Z,15.95
2018-05-02T13:23:43.754Z,15.96
2018-05-02T13:24:43.907Z,15.86
2018-05-02T13:25:44.062Z,15.91
2018-05-02T13:26:44.154Z,15.88
2018-05-02T13:27:43.773Z,15.86
2018-05-02T13:28:44.119Z,15.78
2018-05-02T13:29:44.537Z,15.81
2018-05-02T13:30:44.641Z,15.88
2018-05-02T13:31:44.677Z,15.92
2018-05-02T13:32:45.229Z,16.14
2018-05-02T13:33:45.869Z,16.18
2018-05-02T13:34:46.285Z,16.29
2018-05-02T13:35:46.170Z,16.37
2018-05-02T13:36:46.096Z,16.39
2018-05-02T13:37:46.434Z,16.39
2018-05-02T13:38:46.641Z,16.45
2018-05-02T13:39:47.348Z,16.69
2018-05-02T13:40:47.907Z,16.74
2018-05-02T13:41:47.802Z,16.67
2018-05-02T13:42:47.715Z,16.69
2018-05-02T13:43:48.072Z,16.67
2018-05-02T13:44:47.513Z,16.65
2018-05-02T13:45:47.774Z,16.63
2018-05-02T13:46:48.064Z,16.74
2018-05-02T13:47:48.104Z,16.81
2018-05-02T13:48:48.503Z,16.91
2018-05-02T13:49:48.372Z,16.99
2018-05-02T13:50:48.693Z,16.91
2018-05-02T13:51:49.120Z,16.95
2018-05-02T13:52:49.546Z,16.87
2018-05-02T13:53:49.572Z,16.91
2018-05-02T13:54:49.543Z,16.97
2018-05-02T13:55:49.287Z,16.94
2018-05-02T13:56:51.021Z,16.95
2018-05-02T13:57:50.561Z,16.92
2018-05-02T13:58:49.905Z,17
2018-05-02T13:59:50.616Z,17
2018-05-02T14:00:51.180Z,17.03
2018-05-02T14:01:51.582Z,16.92
2018-05-02T14:02:50.903Z,16.92
2018-05-02T14:03:51.123Z,16.88
2018-05-02T14:04:51.571Z,16.84
2018-05-02T14:05:51.025Z,16.7
2018-05-02T14:06:51.485Z,16.55